TAF KDTW
KDTW 090520Z 0906/1012 33004KT P6SM SCT050 BKN150 FM090900 VRB03KT P6SM OVC035 FM091200 16008KT P6SM OVC050 FM091500 16010G18KT P6SM SCT060 OVC120 FM100200 18012KT P6SM SCT035 OVC060=
METAR KDTW
WC KDTW
WS KDTW
WV KDTW